sensor_id;sensor_type;location;lat;lon;timestamp;P1;durP1;ratioP1;P2;durP2;ratioP2
53022;SDS011;38913;44.338;11.206;2023-05-07T00:01:31;4.63;;;2.27;;
53022;SDS011;38913;44.338;11.206;2023-05-07T00:03:57;3.23;;;1.90;;
53022;SDS011;38913;44.338;11.206;2023-05-07T00:06:22;1.80;;;1.70;;
53022;SDS011;38913;44.338;11.206;2023-05-07T00:08:47;4.35;;;2.05;;
53022;SDS011;38913;44.338;11.206;2023-05-07T00:11:13;3.80;;;2.00;;
53022;SDS011;38913;44.338;11.206;2023-05-07T00:13:38;2.90;;;1.90;;
53022;SDS011;38913;44.338;11.206;2023-05-07T00:16:03;2.90;;;2.00;;
53022;SDS011;38913;44.338;11.206;2023-05-07T00:18:29;3.30;;;2.08;;
53022;SDS011;38913;44.338;11.206;2023-05-07T00:20:54;1.70;;;1.45;;
53022;SDS011;38913;44.338;11.206;2023-05-07T00:23:19;3.37;;;2.00;;
53022;SDS011;38913;44.338;11.206;2023-05-07T00:25:44;3.77;;;1.80;;
53022;SDS011;38913;44.338;11.206;2023-05-07T00:28:09;2.67;;;2.13;;
53022;SDS011;38913;44.338;11.206;2023-05-07T00:30:35;3.43;;;1.87;;
53022;SDS011;38913;44.338;11.206;2023-05-07T00:33:00;3.50;;;1.87;;
53022;SDS011;38913;44.338;11.206;2023-05-07T00:35:25;4.20;;;2.15;;
53022;SDS011;38913;44.338;11.206;2023-05-07T00:37:50;3.10;;;1.90;;
53022;SDS011;38913;44.338;11.206;2023-05-07T00:40:16;3.08;;;1.90;;
53022;SDS011;38913;44.338;11.206;2023-05-07T00:42:41;2.63;;;2.20;;
53022;SDS011;38913;44.338;11.206;2023-05-07T00:45:06;2.57;;;2.00;;
53022;SDS011;38913;44.338;11.206;2023-05-07T00:47:34;2.05;;;1.77;;
53022;SDS011;38913;44.338;11.206;2023-05-07T00:49:59;2.55;;;1.80;;
53022;SDS011;38913;44.338;11.206;2023-05-07T00:52:25;2.35;;;1.80;;
53022;SDS011;38913;44.338;11.206;2023-05-07T00:54:50;2.83;;;2.10;;
53022;SDS011;38913;44.338;11.206;2023-05-07T00:57:16;2.20;;;2.00;;
53022;SDS011;38913;44.338;11.206;2023-05-07T00:59:41;3.58;;;1.88;;
53022;SDS011;38913;44.338;11.206;2023-05-07T01:02:06;3.20;;;2.00;;
53022;SDS011;38913;44.338;11.206;2023-05-07T01:04:32;2.65;;;1.60;;
53022;SDS011;38913;44.338;11.206;2023-05-07T01:06:57;2.17;;;1.77;;
53022;SDS011;38913;44.338;11.206;2023-05-07T01:09:24;4.45;;;2.03;;
53022;SDS011;38913;44.338;11.206;2023-05-07T01:11:49;2.55;;;1.80;;
53022;SDS011;38913;44.338;11.206;2023-05-07T01:14:15;2.15;;;1.88;;
53022;SDS011;38913;44.338;11.206;2023-05-07T01:16:40;3.17;;;2.13;;
53022;SDS011;38913;44.338;11.206;2023-05-07T01:19:07;2.85;;;1.98;;
53022;SDS011;38913;44.338;11.206;2023-05-07T01:21:33;4.43;;;1.95;;
53022;SDS011;38913;44.338;11.206;2023-05-07T01:23:59;4.50;;;2.00;;
53022;SDS011;38913;44.338;11.206;2023-05-07T01:26:25;3.33;;;2.13;;
53022;SDS011;38913;44.338;11.206;2023-05-07T01:28:50;2.83;;;1.80;;
53022;SDS011;38913;44.338;11.206;2023-05-07T01:31:15;2.20;;;2.00;;
53022;SDS011;38913;44.338;11.206;2023-05-07T01:33:41;2.85;;;2.20;;
53022;SDS011;38913;44.338;11.206;2023-05-07T01:36:09;3.75;;;2.42;;
53022;SDS011;38913;44.338;11.206;2023-05-07T01:38:36;2.70;;;1.90;;
53022;SDS011;38913;44.338;11.206;2023-05-07T01:41:02;2.20;;;1.92;;
53022;SDS011;38913;44.338;11.206;2023-05-07T01:43:28;2.92;;;2.00;;
53022;SDS011;38913;44.338;11.206;2023-05-07T01:45:53;3.17;;;2.22;;
53022;SDS011;38913;44.338;11.206;2023-05-07T01:48:19;2.53;;;2.05;;
53022;SDS011;38913;44.338;11.206;2023-05-07T01:50:44;2.40;;;2.15;;
53022;SDS011;38913;44.338;11.206;2023-05-07T01:53:10;3.38;;;1.92;;
53022;SDS011;38913;44.338;11.206;2023-05-07T01:55:35;1.88;;;1.60;;
53022;SDS011;38913;44.338;11.206;2023-05-07T01:58:02;2.40;;;2.05;;
53022;SDS011;38913;44.338;11.206;2023-05-07T02:00:27;3.75;;;2.08;;
53022;SDS011;38913;44.338;11.206;2023-05-07T02:02:53;2.40;;;1.80;;
53022;SDS011;38913;44.338;11.206;2023-05-07T02:05:19;3.40;;;1.90;;
53022;SDS011;38913;44.338;11.206;2023-05-07T02:07:44;2.60;;;1.93;;
53022;SDS011;38913;44.338;11.206;2023-05-07T02:10:09;3.05;;;2.00;;
53022;SDS011;38913;44.338;11.206;2023-05-07T02:12:34;3.75;;;1.92;;
53022;SDS011;38913;44.338;11.206;2023-05-07T02:15:00;4.38;;;1.90;;
53022;SDS011;38913;44.338;11.206;2023-05-07T02:17:25;3.17;;;2.10;;
53022;SDS011;38913;44.338;11.206;2023-05-07T02:19:50;3.30;;;2.45;;
53022;SDS011;38913;44.338;11.206;2023-05-07T02:22:16;3.17;;;2.30;;
53022;SDS011;38913;44.338;11.206;2023-05-07T02:24:41;2.60;;;2.30;;
53022;SDS011;38913;44.338;11.206;2023-05-07T02:27:06;2.93;;;2.13;;
53022;SDS011;38913;44.338;11.206;2023-05-07T02:29:31;3.22;;;1.90;;
53022;SDS011;38913;44.338;11.206;2023-05-07T02:31:57;3.20;;;2.10;;
53022;SDS011;38913;44.338;11.206;2023-05-07T02:34:22;2.63;;;2.30;;
53022;SDS011;38913;44.338;11.206;2023-05-07T02:36:47;3.37;;;2.13;;
53022;SDS011;38913;44.338;11.206;2023-05-07T02:39:12;3.60;;;2.10;;
53022;SDS011;38913;44.338;11.206;2023-05-07T02:41:38;3.70;;;1.88;;
53022;SDS011;38913;44.338;11.206;2023-05-07T02:44:03;2.88;;;1.90;;
53022;SDS011;38913;44.338;11.206;2023-05-07T02:46:29;2.17;;;1.98;;
53022;SDS011;38913;44.338;11.206;2023-05-07T02:48:54;2.40;;;2.08;;
53022;SDS011;38913;44.338;11.206;2023-05-07T02:51:20;3.10;;;2.63;;
53022;SDS011;38913;44.338;11.206;2023-05-07T02:53:45;3.78;;;2.08;;
53022;SDS011;38913;44.338;11.206;2023-05-07T02:56:11;3.08;;;2.17;;
53022;SDS011;38913;44.338;11.206;2023-05-07T02:58:36;2.20;;;2.00;;
53022;SDS011;38913;44.338;11.206;2023-05-07T03:01:01;2.87;;;2.20;;
53022;SDS011;38913;44.338;11.206;2023-05-07T03:03:26;3.60;;;2.30;;
53022;SDS011;38913;44.338;11.206;2023-05-07T03:05:51;2.58;;;1.85;;
53022;SDS011;38913;44.338;11.206;2023-05-07T03:08:17;3.00;;;2.20;;
53022;SDS011;38913;44.338;11.206;2023-05-07T03:10:42;2.10;;;1.90;;
53022;SDS011;38913;44.338;11.206;2023-05-07T03:13:07;3.50;;;1.90;;
53022;SDS011;38913;44.338;11.206;2023-05-07T03:15:32;3.57;;;2.13;;
53022;SDS011;38913;44.338;11.206;2023-05-07T03:17:58;6.00;;;2.27;;
53022;SDS011;38913;44.338;11.206;2023-05-07T03:20:23;4.60;;;2.20;;
53022;SDS011;38913;44.338;11.206;2023-05-07T03:22:48;2.33;;;2.10;;
53022;SDS011;38913;44.338;11.206;2023-05-07T03:25:13;2.53;;;2.20;;
53022;SDS011;38913;44.338;11.206;2023-05-07T03:27:39;3.38;;;2.67;;
53022;SDS011;38913;44.338;11.206;2023-05-07T03:30:06;3.72;;;2.33;;
53022;SDS011;38913;44.338;11.206;2023-05-07T03:32:32;2.92;;;2.08;;
53022;SDS011;38913;44.338;11.206;2023-05-07T03:34:57;4.47;;;2.28;;
53022;SDS011;38913;44.338;11.206;2023-05-07T03:37:23;2.47;;;2.23;;
53022;SDS011;38913;44.338;11.206;2023-05-07T03:39:48;2.87;;;2.07;;
53022;SDS011;38913;44.338;11.206;2023-05-07T03:42:14;2.73;;;2.27;;
53022;SDS011;38913;44.338;11.206;2023-05-07T03:44:39;2.75;;;2.15;;
53022;SDS011;38913;44.338;11.206;2023-05-07T03:47:05;4.00;;;2.40;;
53022;SDS011;38913;44.338;11.206;2023-05-07T03:49:30;5.72;;;2.08;;
53022;SDS011;38913;44.338;11.206;2023-05-07T03:51:55;4.63;;;2.33;;
53022;SDS011;38913;44.338;11.206;2023-05-07T03:54:20;2.87;;;2.00;;
53022;SDS011;38913;44.338;11.206;2023-05-07T03:56:45;3.70;;;2.33;;
53022;SDS011;38913;44.338;11.206;2023-05-07T03:59:11;2.57;;;2.10;;
53022;SDS011;38913;44.338;11.206;2023-05-07T04:01:37;3.33;;;2.50;;
53022;SDS011;38913;44.338;11.206;2023-05-07T04:04:02;2.97;;;2.40;;
53022;SDS011;38913;44.338;11.206;2023-05-07T04:06:28;3.20;;;1.90;;
53022;SDS011;38913;44.338;11.206;2023-05-07T04:08:53;4.50;;;2.40;;
53022;SDS011;38913;44.338;11.206;2023-05-07T04:11:18;3.33;;;2.07;;
53022;SDS011;38913;44.338;11.206;2023-05-07T04:13:43;3.60;;;2.13;;
53022;SDS011;38913;44.338;11.206;2023-05-07T04:16:09;3.15;;;2.35;;
53022;SDS011;38913;44.338;11.206;2023-05-07T04:18:34;3.15;;;2.33;;
53022;SDS011;38913;44.338;11.206;2023-05-07T04:20:59;2.97;;;2.30;;
53022;SDS011;38913;44.338;11.206;2023-05-07T04:23:25;3.77;;;2.13;;
53022;SDS011;38913;44.338;11.206;2023-05-07T04:25:50;3.40;;;2.10;;
53022;SDS011;38913;44.338;11.206;2023-05-07T04:28:15;2.93;;;2.10;;
53022;SDS011;38913;44.338;11.206;2023-05-07T04:30:40;2.23;;;1.90;;
53022;SDS011;38913;44.338;11.206;2023-05-07T04:33:06;3.88;;;1.90;;
53022;SDS011;38913;44.338;11.206;2023-05-07T04:35:32;2.40;;;1.70;;
53022;SDS011;38913;44.338;11.206;2023-05-07T04:37:57;3.30;;;2.30;;
53022;SDS011;38913;44.338;11.206;2023-05-07T04:40:22;3.27;;;2.07;;
53022;SDS011;38913;44.338;11.206;2023-05-07T04:42:48;2.78;;;2.33;;
53022;SDS011;38913;44.338;11.206;2023-05-07T04:45:13;4.00;;;2.50;;
53022;SDS011;38913;44.338;11.206;2023-05-07T04:47:38;4.97;;;2.57;;
53022;SDS011;38913;44.338;11.206;2023-05-07T04:50:04;3.20;;;2.27;;
53022;SDS011;38913;44.338;11.206;2023-05-07T04:52:29;4.50;;;2.40;;
53022;SDS011;38913;44.338;11.206;2023-05-07T04:54:54;2.63;;;2.00;;
53022;SDS011;38913;44.338;11.206;2023-05-07T04:57:19;2.50;;;2.00;;
53022;SDS011;38913;44.338;11.206;2023-05-07T04:59:45;3.37;;;2.40;;
53022;SDS011;38913;44.338;11.206;2023-05-07T05:02:10;3.63;;;2.10;;
53022;SDS011;38913;44.338;11.206;2023-05-07T05:04:36;2.95;;;1.95;;
53022;SDS011;38913;44.338;11.206;2023-05-07T05:07:01;4.65;;;1.85;;
53022;SDS011;38913;44.338;11.206;2023-05-07T05:09:28;2.45;;;1.80;;
53022;SDS011;38913;44.338;11.206;2023-05-07T05:11:53;2.40;;;1.87;;
53022;SDS011;38913;44.338;11.206;2023-05-07T05:14:19;2.47;;;1.90;;
53022;SDS011;38913;44.338;11.206;2023-05-07T05:16:44;2.50;;;1.85;;
53022;SDS011;38913;44.338;11.206;2023-05-07T05:19:09;2.50;;;1.77;;
53022;SDS011;38913;44.338;11.206;2023-05-07T05:21:34;2.20;;;1.50;;
53022;SDS011;38913;44.338;11.206;2023-05-07T05:24:00;2.90;;;1.77;;
53022;SDS011;38913;44.338;11.206;2023-05-07T05:26:25;4.10;;;1.80;;
53022;SDS011;38913;44.338;11.206;2023-05-07T05:28:50;2.13;;;1.67;;
53022;SDS011;38913;44.338;11.206;2023-05-07T05:31:16;1.97;;;1.70;;
53022;SDS011;38913;44.338;11.206;2023-05-07T05:33:41;2.05;;;1.83;;
53022;SDS011;38913;44.338;11.206;2023-05-07T05:36:07;3.30;;;1.60;;
53022;SDS011;38913;44.338;11.206;2023-05-07T05:38:34;2.10;;;1.70;;
53022;SDS011;38913;44.338;11.206;2023-05-07T05:40:59;2.22;;;1.65;;
53022;SDS011;38913;44.338;11.206;2023-05-07T05:43:24;1.75;;;1.60;;
53022;SDS011;38913;44.338;11.206;2023-05-07T05:45:50;2.20;;;1.63;;
53022;SDS011;38913;44.338;11.206;2023-05-07T05:48:15;2.30;;;1.60;;
53022;SDS011;38913;44.338;11.206;2023-05-07T05:50:41;2.23;;;1.40;;
53022;SDS011;38913;44.338;11.206;2023-05-07T05:53:07;1.98;;;1.77;;
53022;SDS011;38913;44.338;11.206;2023-05-07T05:55:32;2.17;;;1.60;;
53022;SDS011;38913;44.338;11.206;2023-05-07T05:57:58;2.10;;;1.60;;
53022;SDS011;38913;44.338;11.206;2023-05-07T06:00:23;2.15;;;1.80;;
53022;SDS011;38913;44.338;11.206;2023-05-07T06:02:48;1.70;;;1.40;;
53022;SDS011;38913;44.338;11.206;2023-05-07T06:05:14;2.50;;;1.63;;
53022;SDS011;38913;44.338;11.206;2023-05-07T06:07:39;1.73;;;1.63;;
53022;SDS011;38913;44.338;11.206;2023-05-07T06:10:05;1.60;;;1.50;;
53022;SDS011;38913;44.338;11.206;2023-05-07T06:12:30;1.70;;;1.60;;
53022;SDS011;38913;44.338;11.206;2023-05-07T06:14:56;4.43;;;1.70;;
53022;SDS011;38913;44.338;11.206;2023-05-07T06:17:21;2.73;;;1.60;;
53022;SDS011;38913;44.338;11.206;2023-05-07T06:19:46;1.97;;;1.40;;
53022;SDS011;38913;44.338;11.206;2023-05-07T06:22:12;1.60;;;1.50;;
53022;SDS011;38913;44.338;11.206;2023-05-07T06:24:37;2.50;;;1.47;;
53022;SDS011;38913;44.338;11.206;2023-05-07T06:27:02;1.27;;;1.17;;
53022;SDS011;38913;44.338;11.206;2023-05-07T06:29:28;2.23;;;1.40;;
53022;SDS011;38913;44.338;11.206;2023-05-07T06:31:55;2.17;;;1.40;;
53022;SDS011;38913;44.338;11.206;2023-05-07T06:34:20;1.92;;;1.40;;
53022;SDS011;38913;44.338;11.206;2023-05-07T06:36:45;2.53;;;1.40;;
53022;SDS011;38913;44.338;11.206;2023-05-07T06:39:11;1.93;;;1.20;;
53022;SDS011;38913;44.338;11.206;2023-05-07T06:41:36;2.47;;;1.40;;
53022;SDS011;38913;44.338;11.206;2023-05-07T06:44:02;1.90;;;1.50;;
53022;SDS011;38913;44.338;11.206;2023-05-07T06:46:27;2.28;;;1.40;;
53022;SDS011;38913;44.338;11.206;2023-05-07T06:48:53;1.60;;;1.20;;
53022;SDS011;38913;44.338;11.206;2023-05-07T06:51:18;1.37;;;1.27;;
53022;SDS011;38913;44.338;11.206;2023-05-07T06:53:43;2.30;;;1.30;;
53022;SDS011;38913;44.338;11.206;2023-05-07T06:56:08;1.50;;;1.40;;
53022;SDS011;38913;44.338;11.206;2023-05-07T06:58:33;2.43;;;1.40;;
53022;SDS011;38913;44.338;11.206;2023-05-07T07:00:59;1.45;;;1.30;;
53022;SDS011;38913;44.338;11.206;2023-05-07T07:03:24;2.10;;;1.30;;
53022;SDS011;38913;44.338;11.206;2023-05-07T07:05:53;4.05;;;1.40;;
53022;SDS011;38913;44.338;11.206;2023-05-07T07:08:18;1.58;;;1.25;;
53022;SDS011;38913;44.338;11.206;2023-05-07T07:10:46;1.88;;;1.40;;
53022;SDS011;38913;44.338;11.206;2023-05-07T07:13:11;2.30;;;1.33;;
53022;SDS011;38913;44.338;11.206;2023-05-07T07:15:36;2.80;;;1.60;;
53022;SDS011;38913;44.338;11.206;2023-05-07T07:18:01;1.63;;;1.30;;
53022;SDS011;38913;44.338;11.206;2023-05-07T07:20:27;1.70;;;1.13;;
53022;SDS011;38913;44.338;11.206;2023-05-07T07:22:52;2.27;;;1.50;;
53022;SDS011;38913;44.338;11.206;2023-05-07T07:25:17;1.47;;;1.30;;
53022;SDS011;38913;44.338;11.206;2023-05-07T07:27:42;1.70;;;1.30;;
53022;SDS011;38913;44.338;11.206;2023-05-07T07:30:08;2.13;;;1.43;;
53022;SDS011;38913;44.338;11.206;2023-05-07T07:32:34;2.55;;;1.20;;
53022;SDS011;38913;44.338;11.206;2023-05-07T07:34:59;3.70;;;1.50;;
53022;SDS011;38913;44.338;11.206;2023-05-07T07:37:24;1.37;;;1.27;;
53022;SDS011;38913;44.338;11.206;2023-05-07T07:39:50;1.77;;;1.35;;
53022;SDS011;38913;44.338;11.206;2023-05-07T07:42:15;1.27;;;1.17;;
53022;SDS011;38913;44.338;11.206;2023-05-07T07:44:41;1.50;;;1.40;;
53022;SDS011;38913;44.338;11.206;2023-05-07T07:47:06;2.67;;;1.40;;
53022;SDS011;38913;44.338;11.206;2023-05-07T07:49:31;2.30;;;1.53;;
53022;SDS011;38913;44.338;11.206;2023-05-07T07:51:56;1.77;;;1.30;;
53022;SDS011;38913;44.338;11.206;2023-05-07T07:54:24;2.40;;;1.48;;
53022;SDS011;38913;44.338;11.206;2023-05-07T07:56:49;1.80;;;1.40;;
53022;SDS011;38913;44.338;11.206;2023-05-07T07:59:14;1.57;;;1.30;;
53022;SDS011;38913;44.338;11.206;2023-05-07T08:01:43;2.60;;;1.50;;
53022;SDS011;38913;44.338;11.206;2023-05-07T08:04:08;2.07;;;1.60;;
53022;SDS011;38913;44.338;11.206;2023-05-07T08:06:34;2.70;;;1.63;;
53022;SDS011;38913;44.338;11.206;2023-05-07T08:08:59;2.88;;;1.95;;
53022;SDS011;38913;44.338;11.206;2023-05-07T08:11:25;1.90;;;1.80;;
53022;SDS011;38913;44.338;11.206;2023-05-07T08:13:50;2.03;;;1.58;;
53022;SDS011;38913;44.338;11.206;2023-05-07T08:16:15;3.07;;;1.93;;
53022;SDS011;38913;44.338;11.206;2023-05-07T08:18:41;1.60;;;1.50;;
53022;SDS011;38913;44.338;11.206;2023-05-07T08:21:06;1.30;;;1.20;;
53022;SDS011;38913;44.338;11.206;2023-05-07T08:23:31;2.03;;;1.40;;
53022;SDS011;38913;44.338;11.206;2023-05-07T08:25:57;1.83;;;1.20;;
53022;SDS011;38913;44.338;11.206;2023-05-07T08:28:22;2.30;;;1.43;;
53022;SDS011;38913;44.338;11.206;2023-05-07T08:30:49;1.55;;;1.40;;
53022;SDS011;38913;44.338;11.206;2023-05-07T08:33:14;2.87;;;1.80;;
53022;SDS011;38913;44.338;11.206;2023-05-07T08:35:40;1.80;;;1.70;;
53022;SDS011;38913;44.338;11.206;2023-05-07T08:38:05;2.40;;;1.73;;
53022;SDS011;38913;44.338;11.206;2023-05-07T08:40:31;2.10;;;1.63;;
53022;SDS011;38913;44.338;11.206;2023-05-07T08:43:01;2.25;;;2.05;;
53022;SDS011;38913;44.338;11.206;2023-05-07T08:45:27;3.17;;;2.42;;
53022;SDS011;38913;44.338;11.206;2023-05-07T08:47:55;2.08;;;1.98;;
53022;SDS011;38913;44.338;11.206;2023-05-07T08:50:23;2.45;;;2.25;;
53022;SDS011;38913;44.338;11.206;2023-05-07T08:52:48;2.53;;;2.20;;
53022;SDS011;38913;44.338;11.206;2023-05-07T08:55:13;2.83;;;2.53;;
53022;SDS011;38913;44.338;11.206;2023-05-07T08:57:40;2.03;;;1.92;;
53022;SDS011;38913;44.338;11.206;2023-05-07T09:00:05;2.10;;;2.00;;
53022;SDS011;38913;44.338;11.206;2023-05-07T09:02:32;2.30;;;2.10;;
53022;SDS011;38913;44.338;11.206;2023-05-07T09:04:57;3.63;;;2.27;;
53022;SDS011;38913;44.338;11.206;2023-05-07T09:07:22;2.97;;;2.40;;
53022;SDS011;38913;44.338;11.206;2023-05-07T09:09:48;2.38;;;2.10;;
53022;SDS011;38913;44.338;11.206;2023-05-07T09:12:13;2.10;;;1.90;;
53022;SDS011;38913;44.338;11.206;2023-05-07T09:14:38;3.40;;;2.07;;
53022;SDS011;38913;44.338;11.206;2023-05-07T09:17:04;2.17;;;1.92;;
53022;SDS011;38913;44.338;11.206;2023-05-07T09:19:29;2.73;;;2.37;;
53022;SDS011;38913;44.338;11.206;2023-05-07T09:21:58;2.77;;;2.43;;
53022;SDS011;38913;44.338;11.206;2023-05-07T09:24:24;4.38;;;2.50;;
53022;SDS011;38913;44.338;11.206;2023-05-07T09:26:50;2.63;;;2.23;;
53022;SDS011;38913;44.338;11.206;2023-05-07T09:29:15;2.90;;;2.60;;
53022;SDS011;38913;44.338;11.206;2023-05-07T09:31:40;3.40;;;2.30;;
53022;SDS011;38913;44.338;11.206;2023-05-07T09:34:05;4.13;;;2.57;;
53022;SDS011;38913;44.338;11.206;2023-05-07T09:36:31;3.10;;;2.40;;
53022;SDS011;38913;44.338;11.206;2023-05-07T09:38:58;2.50;;;2.30;;
53022;SDS011;38913;44.338;11.206;2023-05-07T09:41:24;3.65;;;2.33;;
53022;SDS011;38913;44.338;11.206;2023-05-07T09:43:52;3.67;;;2.57;;
53022;SDS011;38913;44.338;11.206;2023-05-07T09:46:18;4.20;;;2.53;;
53022;SDS011;38913;44.338;11.206;2023-05-07T09:48:49;3.65;;;2.50;;
53022;SDS011;38913;44.338;11.206;2023-05-07T09:51:18;3.25;;;2.95;;
53022;SDS011;38913;44.338;11.206;2023-05-07T09:53:46;2.78;;;2.53;;
53022;SDS011;38913;44.338;11.206;2023-05-07T09:56:13;2.63;;;2.40;;
53022;SDS011;38913;44.338;11.206;2023-05-07T09:58:38;4.53;;;2.60;;
53022;SDS011;38913;44.338;11.206;2023-05-07T10:01:06;4.20;;;2.80;;
53022;SDS011;38913;44.338;11.206;2023-05-07T10:03:31;3.58;;;2.70;;
53022;SDS011;38913;44.338;11.206;2023-05-07T10:05:58;5.93;;;2.95;;
53022;SDS011;38913;44.338;11.206;2023-05-07T10:08:23;3.97;;;2.95;;
53022;SDS011;38913;44.338;11.206;2023-05-07T10:10:49;3.83;;;2.78;;
53022;SDS011;38913;44.338;11.206;2023-05-07T10:13:14;3.03;;;2.73;;
53022;SDS011;38913;44.338;11.206;2023-05-07T10:15:40;3.25;;;2.58;;
53022;SDS011;38913;44.338;11.206;2023-05-07T10:18:05;2.42;;;2.10;;
53022;SDS011;38913;44.338;11.206;2023-05-07T10:20:31;3.35;;;2.30;;
53022;SDS011;38913;44.338;11.206;2023-05-07T10:22:58;3.00;;;2.80;;
53022;SDS011;38913;44.338;11.206;2023-05-07T10:25:30;3.70;;;2.92;;
53022;SDS011;38913;44.338;11.206;2023-05-07T10:27:55;4.28;;;3.50;;
53022;SDS011;38913;44.338;11.206;2023-05-07T10:32:48;2.73;;;2.50;;
53022;SDS011;38913;44.338;11.206;2023-05-07T10:35:19;2.83;;;2.58;;
53022;SDS011;38913;44.338;11.206;2023-05-07T10:37:45;3.30;;;2.60;;
53022;SDS011;38913;44.338;11.206;2023-05-07T10:40:11;3.15;;;2.50;;
53022;SDS011;38913;44.338;11.206;2023-05-07T10:42:36;4.10;;;2.80;;
53022;SDS011;38913;44.338;11.206;2023-05-07T10:45:22;3.53;;;2.80;;
53022;SDS011;38913;44.338;11.206;2023-05-07T10:50:30;3.10;;;2.80;;
53022;SDS011;38913;44.338;11.206;2023-05-07T10:55:39;3.08;;;2.67;;
53022;SDS011;38913;44.338;11.206;2023-05-07T11:01:02;3.00;;;2.70;;
53022;SDS011;38913;44.338;11.206;2023-05-07T11:03:28;3.23;;;2.93;;
53022;SDS011;38913;44.338;11.206;2023-05-07T11:06:12;2.83;;;2.58;;
53022;SDS011;38913;44.338;11.206;2023-05-07T11:08:56;3.38;;;2.80;;
53022;SDS011;38913;44.338;11.206;2023-05-07T11:14:05;3.10;;;2.80;;
53022;SDS011;38913;44.338;11.206;2023-05-07T11:16:31;3.67;;;3.33;;
53022;SDS011;38913;44.338;11.206;2023-05-07T11:18:58;3.00;;;2.55;;
53022;SDS011;38913;44.338;11.206;2023-05-07T11:21:39;3.93;;;2.97;;
53022;SDS011;38913;44.338;11.206;2023-05-07T11:24:05;3.17;;;2.88;;
53022;SDS011;38913;44.338;11.206;2023-05-07T11:26:40;3.55;;;3.25;;
53022;SDS011;38913;44.338;11.206;2023-05-07T11:29:10;3.63;;;3.00;;
53022;SDS011;38913;44.338;11.206;2023-05-07T11:31:35;4.05;;;3.67;;
53022;SDS011;38913;44.338;11.206;2023-05-07T11:34:00;4.20;;;3.23;;
53022;SDS011;38913;44.338;11.206;2023-05-07T11:36:26;4.40;;;3.35;;
53022;SDS011;38913;44.338;11.206;2023-05-07T11:38:51;3.38;;;3.08;;
53022;SDS011;38913;44.338;11.206;2023-05-07T11:41:17;6.83;;;3.60;;
53022;SDS011;38913;44.338;11.206;2023-05-07T11:43:56;3.53;;;3.22;;
53022;SDS011;38913;44.338;11.206;2023-05-07T11:46:22;4.82;;;3.15;;
53022;SDS011;38913;44.338;11.206;2023-05-07T11:48:47;3.90;;;3.50;;
53022;SDS011;38913;44.338;11.206;2023-05-07T11:51:12;3.58;;;3.25;;
53022;SDS011;38913;44.338;11.206;2023-05-07T11:53:41;3.75;;;2.92;;
53022;SDS011;38913;44.338;11.206;2023-05-07T11:56:07;4.68;;;3.40;;
53022;SDS011;38913;44.338;11.206;2023-05-07T11:58:32;3.55;;;3.25;;
53022;SDS011;38913;44.338;11.206;2023-05-07T12:00:58;4.60;;;3.37;;
53022;SDS011;38913;44.338;11.206;2023-05-07T12:03:23;3.88;;;3.47;;
53022;SDS011;38913;44.338;11.206;2023-05-07T12:05:48;3.53;;;3.23;;
53022;SDS011;38913;44.338;11.206;2023-05-07T12:08:14;5.28;;;3.40;;
53022;SDS011;38913;44.338;11.206;2023-05-07T12:10:40;4.18;;;3.80;;
53022;SDS011;38913;44.338;11.206;2023-05-07T12:13:13;4.97;;;3.65;;
53022;SDS011;38913;44.338;11.206;2023-05-07T12:15:38;3.75;;;3.17;;
53022;SDS011;38913;44.338;11.206;2023-05-07T12:18:04;3.47;;;3.03;;
53022;SDS011;38913;44.338;11.206;2023-05-07T12:20:30;3.78;;;3.28;;
53022;SDS011;38913;44.338;11.206;2023-05-07T12:22:55;3.47;;;3.17;;
53022;SDS011;38913;44.338;11.206;2023-05-07T12:25:21;3.30;;;3.00;;
53022;SDS011;38913;44.338;11.206;2023-05-07T12:27:50;3.50;;;3.20;;
53022;SDS011;38913;44.338;11.206;2023-05-07T12:30:16;3.72;;;3.42;;
53022;SDS011;38913;44.338;11.206;2023-05-07T12:32:42;3.30;;;3.00;;
53022;SDS011;38913;44.338;11.206;2023-05-07T12:35:09;3.72;;;3.40;;
53022;SDS011;38913;44.338;11.206;2023-05-07T12:37:35;4.20;;;3.47;;
53022;SDS011;38913;44.338;11.206;2023-05-07T12:40:10;3.92;;;3.53;;
53022;SDS011;38913;44.338;11.206;2023-05-07T12:42:36;4.53;;;3.70;;
53022;SDS011;38913;44.338;11.206;2023-05-07T12:45:11;3.72;;;3.42;;
53022;SDS011;38913;44.338;11.206;2023-05-07T12:47:36;3.60;;;3.30;;
53022;SDS011;38913;44.338;11.206;2023-05-07T12:50:04;4.50;;;3.30;;
53022;SDS011;38913;44.338;11.206;2023-05-07T12:52:29;3.83;;;3.20;;
53022;SDS011;38913;44.338;11.206;2023-05-07T12:54:56;4.22;;;3.15;;
53022;SDS011;38913;44.338;11.206;2023-05-07T12:57:21;4.37;;;3.20;;
53022;SDS011;38913;44.338;11.206;2023-05-07T12:59:46;5.03;;;3.50;;
53022;SDS011;38913;44.338;11.206;2023-05-07T13:02:12;3.40;;;3.10;;
53022;SDS011;38913;44.338;11.206;2023-05-07T13:04:37;4.00;;;3.60;;
53022;SDS011;38913;44.338;11.206;2023-05-07T13:07:02;3.40;;;3.10;;
53022;SDS011;38913;44.338;11.206;2023-05-07T13:09:28;3.80;;;3.45;;
53022;SDS011;38913;44.338;11.206;2023-05-07T13:11:56;3.65;;;3.22;;
53022;SDS011;38913;44.338;11.206;2023-05-07T13:14:21;3.50;;;3.00;;
53022;SDS011;38913;44.338;11.206;2023-05-07T13:16:47;4.07;;;3.50;;
53022;SDS011;38913;44.338;11.206;2023-05-07T13:19:12;3.88;;;3.58;;
53022;SDS011;38913;44.338;11.206;2023-05-07T13:21:37;4.60;;;3.53;;
53022;SDS011;38913;44.338;11.206;2023-05-07T13:24:03;4.53;;;3.30;;
53022;SDS011;38913;44.338;11.206;2023-05-07T13:26:29;3.73;;;3.43;;
53022;SDS011;38913;44.338;11.206;2023-05-07T13:28:55;3.95;;;3.55;;
53022;SDS011;38913;44.338;11.206;2023-05-07T13:31:20;4.15;;;3.30;;
53022;SDS011;38913;44.338;11.206;2023-05-07T13:33:46;3.95;;;3.58;;
53022;SDS011;38913;44.338;11.206;2023-05-07T13:36:11;4.43;;;3.47;;
53022;SDS011;38913;44.338;11.206;2023-05-07T13:38:36;5.87;;;3.70;;
53022;SDS011;38913;44.338;11.206;2023-05-07T13:41:02;3.80;;;3.37;;
53022;SDS011;38913;44.338;11.206;2023-05-07T13:43:27;3.73;;;3.30;;
53022;SDS011;38913;44.338;11.206;2023-05-07T13:45:52;4.20;;;3.60;;
53022;SDS011;38913;44.338;11.206;2023-05-07T13:48:17;3.80;;;3.47;;
53022;SDS011;38913;44.338;11.206;2023-05-07T13:50:43;4.10;;;3.70;;
53022;SDS011;38913;44.338;11.206;2023-05-07T13:53:08;4.10;;;3.70;;
53022;SDS011;38913;44.338;11.206;2023-05-07T13:55:33;5.60;;;3.90;;
53022;SDS011;38913;44.338;11.206;2023-05-07T13:57:59;5.50;;;4.27;;
53022;SDS011;38913;44.338;11.206;2023-05-07T14:00:25;5.90;;;3.90;;
53022;SDS011;38913;44.338;11.206;2023-05-07T14:02:51;5.53;;;4.10;;
53022;SDS011;38913;44.338;11.206;2023-05-07T14:05:16;4.97;;;4.03;;
53022;SDS011;38913;44.338;11.206;2023-05-07T14:07:41;4.37;;;3.87;;
53022;SDS011;38913;44.338;11.206;2023-05-07T14:10:06;7.10;;;4.10;;
53022;SDS011;38913;44.338;11.206;2023-05-07T14:12:32;5.30;;;4.78;;
53022;SDS011;38913;44.338;11.206;2023-05-07T14:14:58;5.03;;;4.35;;
53022;SDS011;38913;44.338;11.206;2023-05-07T14:17:23;6.57;;;4.22;;
53022;SDS011;38913;44.338;11.206;2023-05-07T14:19:51;7.55;;;4.57;;
53022;SDS011;38913;44.338;11.206;2023-05-07T14:22:18;4.85;;;4.20;;
53022;SDS011;38913;44.338;11.206;2023-05-07T14:24:44;5.03;;;4.20;;
53022;SDS011;38913;44.338;11.206;2023-05-07T14:27:09;7.03;;;4.73;;
53022;SDS011;38913;44.338;11.206;2023-05-07T14:29:35;5.20;;;4.60;;
53022;SDS011;38913;44.338;11.206;2023-05-07T14:32:01;6.13;;;4.38;;
53022;SDS011;38913;44.338;11.206;2023-05-07T14:34:27;4.93;;;4.50;;
53022;SDS011;38913;44.338;11.206;2023-05-07T14:36:52;5.53;;;4.97;;
53022;SDS011;38913;44.338;11.206;2023-05-07T14:39:17;6.82;;;4.20;;